createdAt,value
2023-04-29T00:00:32.229Z,28.37
2023-04-29T00:05:36.778Z,27.13
2023-04-29T00:10:43.227Z,27.83
2023-04-29T00:15:50.636Z,29.17
2023-04-29T00:20:54.386Z,27.43
2023-04-29T00:26:00.943Z,26.53
2023-04-29T00:31:02.691Z,27.80
2023-04-29T00:36:04.646Z,26.10
2023-04-29T00:41:09.114Z,24.63
2023-04-29T00:46:13.768Z,25.23
2023-04-29T00:51:21.635Z,24.03
2023-04-29T00:56:25.705Z,25.90
2023-04-29T01:01:28.090Z,26.53
2023-04-29T01:06:49.556Z,28.03
2023-04-29T01:12:16.790Z,28.80
2023-04-29T01:17:26.923Z,30.33
2023-04-29T01:22:29.670Z,29.83
2023-04-29T01:27:39.999Z,28.47
2023-04-29T01:32:54.114Z,28.37
2023-04-29T01:38:09.605Z,27.00
2023-04-29T01:43:18.547Z,29.23
2023-04-29T01:48:25.075Z,30.57
2023-04-29T01:53:27.361Z,28.90
2023-04-29T01:58:29.569Z,30.57
2023-04-29T02:03:31.363Z,28.97
2023-04-29T02:08:38.305Z,28.60
2023-04-29T02:13:42.365Z,26.70
2023-04-29T02:18:50.755Z,29.27
2023-04-29T02:23:54.408Z,28.50
2023-04-29T02:29:03.565Z,29.70
2023-04-29T02:34:10.131Z,28.40
2023-04-29T02:39:11.879Z,30.13
2023-04-29T02:44:15.988Z,29.97
2023-04-29T02:49:20.086Z,33.47
2023-04-29T02:54:21.828Z,38.53
2023-04-29T02:59:25.778Z,34.23
2023-04-29T03:04:30.297Z,44.13
2023-04-29T03:09:34.646Z,43.47
2023-04-29T03:14:39.100Z,41.10
2023-04-29T03:19:47.786Z,34.30
2023-04-29T03:24:52.052Z,36.07
2023-04-29T03:29:56.105Z,31.97
2023-04-29T03:34:58.186Z,31.83
2023-04-29T03:40:22.690Z,31.87
2023-04-29T03:45:27.867Z,28.47
2023-04-29T03:50:30.175Z,31.27
2023-04-29T03:55:34.608Z,31.67
2023-04-29T04:00:38.799Z,29.83
2023-04-29T04:05:48.805Z,28.57
2023-04-29T04:10:51.439Z,27.67
2023-04-29T04:16:13.709Z,27.23
2023-04-29T04:21:19.226Z,26.83
2023-04-29T04:26:28.924Z,24.60
2023-04-29T04:31:40.928Z,26.10
2023-04-29T04:36:44.315Z,23.83
2023-04-29T04:41:46.140Z,25.60
2023-04-29T04:46:48.241Z,24.17
2023-04-29T04:52:01.104Z,22.70
2023-04-29T04:57:06.822Z,20.23
2023-04-29T05:02:11.208Z,20.80
2023-04-29T05:07:15.212Z,20.83
2023-04-29T05:12:35.229Z,19.87
2023-04-29T05:17:38.062Z,20.63
2023-04-29T05:22:39.972Z,20.13
2023-04-29T05:27:44.842Z,22.73
2023-04-29T05:32:53.465Z,18.47
2023-04-29T05:37:56.760Z,19.03
2023-04-29T05:43:24.919Z,18.20
2023-04-29T05:48:31.377Z,18.50
2023-04-29T05:53:41.075Z,18.43
2023-04-29T05:58:43.139Z,19.37
2023-04-29T06:03:45.091Z,18.17
2023-04-29T06:09:13.353Z,19.13
2023-04-29T06:14:22.638Z,17.23
2023-04-29T06:19:25.416Z,16.03
2023-04-29T06:24:30.156Z,16.13
2023-04-29T06:29:34.313Z,15.83
2023-04-29T06:34:38.561Z,15.17
2023-04-29T06:40:00.486Z,13.70
2023-04-29T06:45:31.711Z,12.60
2023-04-29T06:50:57.722Z,13.10
2023-04-29T06:56:01.678Z,13.73
2023-04-29T07:01:04.268Z,12.80
2023-04-29T07:06:06.597Z,11.93
2023-04-29T07:11:08.410Z,10.67
2023-04-29T07:16:18.411Z,11.47
2023-04-29T07:21:20.163Z,11.50
2023-04-29T07:26:24.917Z,10.87
2023-04-29T07:31:31.723Z,10.83
2023-04-29T07:36:36.056Z,11.52
2023-04-29T07:41:39.851Z,11.03
2023-04-29T07:46:49.477Z,11.18
2023-04-29T07:51:51.282Z,10.25
2023-04-29T07:56:53.033Z,10.38
2023-04-29T08:01:59.910Z,10.95
2023-04-29T08:07:04.577Z,10.63
2023-04-29T08:12:11.151Z,11.03
2023-04-29T08:17:15.484Z,10.07
2023-04-29T08:22:17.368Z,10.30
2023-04-29T08:27:19.875Z,10.27
2023-04-29T08:32:24.651Z,9.95
2023-04-29T08:37:28.652Z,9.30
2023-04-29T08:42:37.928Z,8.20
2023-04-29T08:47:42.371Z,8.10
2023-04-29T08:52:48.822Z,6.82
2023-04-29T08:57:54.912Z,5.80
2023-04-29T09:02:57.661Z,4.60
2023-04-29T09:08:01.869Z,4.97
2023-04-29T09:13:03.697Z,4.22
2023-04-29T09:18:10.344Z,4.43
2023-04-29T09:23:14.437Z,3.67
2023-04-29T09:28:26.392Z,3.38
2023-04-29T09:33:31.440Z,4.15
2023-04-29T09:38:33.807Z,2.97
2023-04-29T09:43:49.819Z,3.10
2023-04-29T09:48:51.861Z,3.70
2023-04-29T09:53:53.761Z,3.83
2023-04-29T09:59:08.396Z,4.13
2023-04-29T10:04:17.019Z,3.90
2023-04-29T10:09:22.890Z,4.20
2023-04-29T10:14:27.708Z,4.70
2023-04-29T10:19:35.929Z,4.45
2023-04-29T10:24:37.918Z,4.20
2023-04-29T10:29:43.768Z,5.63
2023-04-29T10:34:48.091Z,5.20
2023-04-29T10:40:05.880Z,4.03
2023-04-29T10:45:30.074Z,3.92
2023-04-29T10:50:33.340Z,3.00
2023-04-29T10:55:38.918Z,4.03
2023-04-29T11:00:40.732Z,2.97
2023-04-29T11:05:46.285Z,2.20
2023-04-29T11:10:53.096Z,2.30
2023-04-29T11:16:07.484Z,2.88
2023-04-29T11:21:12.288Z,2.58
2023-04-29T11:26:14.069Z,2.67
2023-04-29T11:31:18.086Z,2.72
2023-04-29T11:36:19.822Z,2.30
2023-04-29T11:41:25.977Z,2.40
2023-04-29T11:46:33.054Z,2.22
2023-04-29T11:51:37.799Z,2.50
2023-04-29T11:56:39.720Z,1.50
2023-04-29T12:01:42.363Z,2.10
2023-04-29T12:06:44.259Z,1.75
2023-04-29T12:11:51.256Z,1.83
2023-04-29T12:16:54.350Z,1.45
2023-04-29T12:21:59.711Z,1.33
2023-04-29T12:27:01.728Z,1.35
2023-04-29T12:32:09.399Z,1.58
2023-04-29T12:37:21.529Z,1.23
2023-04-29T12:42:23.684Z,1.35
2023-04-29T12:47:34.798Z,1.40
2023-04-29T12:52:36.997Z,2.00
2023-04-29T12:57:39.786Z,2.30
2023-04-29T13:02:44.516Z,2.78
2023-04-29T13:07:46.502Z,3.00
2023-04-29T13:12:50.662Z,2.05
2023-04-29T13:17:52.753Z,2.38
2023-04-29T13:22:56.895Z,2.42
2023-04-29T13:28:01.004Z,3.20
2023-04-29T13:33:11.855Z,2.63
2023-04-29T13:38:15.085Z,2.60
2023-04-29T13:43:26.345Z,1.73
2023-04-29T13:59:36.164Z,1.70
2023-04-29T14:04:17.652Z,1.85
2023-04-29T14:09:22.780Z,2.10
2023-04-29T14:14:24.567Z,1.92
2023-04-29T14:19:26.331Z,1.58
2023-04-29T14:24:30.956Z,1.63
2023-04-29T14:29:35.154Z,1.65
2023-04-29T14:34:39.859Z,2.10
2023-04-29T14:39:46.989Z,1.95
2023-04-29T14:44:51.724Z,2.00
2023-04-29T14:49:53.589Z,2.20
2023-04-29T14:54:55.538Z,1.70
2023-04-29T14:59:57.483Z,2.40
2023-04-29T15:05:04.196Z,3.00
2023-04-29T15:10:07.905Z,3.17
2023-04-29T15:15:11.918Z,3.40
2023-04-29T15:20:15.876Z,4.28
2023-04-29T15:25:19.736Z,3.35
2023-04-29T15:30:26.430Z,3.58
2023-04-29T15:35:28.252Z,3.53
2023-04-29T15:40:32.974Z,2.50
2023-04-29T15:45:37.289Z,2.90
2023-04-29T15:50:43.565Z,2.72
2023-04-29T15:55:48.554Z,2.05
2023-04-29T16:00:53.700Z,2.13
2023-04-29T16:05:57.668Z,2.20
2023-04-29T16:11:01.821Z,2.30
2023-04-29T16:16:05.815Z,2.83
2023-04-29T16:21:07.573Z,2.38
2023-04-29T16:26:14.324Z,2.13
2023-04-29T16:31:19.965Z,2.08
2023-04-29T16:36:21.823Z,1.80
2023-04-29T16:41:24.112Z,1.50
2023-04-29T16:46:28.578Z,1.40
2023-04-29T16:51:30.361Z,1.77
2023-04-29T16:56:32.194Z,1.92
2023-04-29T17:01:34.010Z,1.77
2023-04-29T17:06:40.672Z,1.58
2023-04-29T17:11:49.188Z,1.67
2023-04-29T17:16:50.968Z,1.45
2023-04-29T17:21:56.853Z,1.70
2023-04-29T17:26:59.678Z,1.30
2023-04-29T17:32:04.596Z,1.88
2023-04-29T17:37:07.056Z,2.20
2023-04-29T17:42:08.927Z,2.10
2023-04-29T17:47:15.153Z,1.98
2023-04-29T17:52:21.475Z,1.92
2023-04-29T17:57:24.218Z,1.50
2023-04-29T18:02:28.388Z,2.00
2023-04-29T18:07:30.186Z,1.83
2023-04-29T18:12:31.992Z,2.30
2023-04-29T18:17:34.080Z,1.60
2023-04-29T18:22:41.532Z,1.83
2023-04-29T18:27:43.236Z,1.67
2023-04-29T18:32:47.191Z,1.70
2023-04-29T18:37:51.652Z,1.90
2023-04-29T18:42:53.493Z,1.65
2023-04-29T18:47:57.634Z,2.10
2023-04-29T18:53:02.207Z,1.93
2023-04-29T18:58:04.323Z,2.40
2023-04-29T19:03:08.501Z,1.77
2023-04-29T19:08:10.646Z,1.97
2023-04-29T19:13:12.785Z,2.10
2023-04-29T19:18:14.877Z,1.93
2023-04-29T19:23:16.670Z,2.30
2023-04-29T19:28:21.061Z,2.43
2023-04-29T19:33:25.396Z,1.87
2023-04-29T19:38:29.462Z,2.37
2023-04-29T19:43:33.654Z,2.60
2023-04-29T19:48:38.065Z,2.47
2023-04-29T19:53:40.713Z,2.30
2023-04-29T19:58:48.394Z,2.10
2023-04-29T20:03:50.608Z,2.27
2023-04-29T20:08:52.696Z,2.07
2023-04-29T20:14:04.398Z,1.93
2023-04-29T20:19:06.245Z,2.10
2023-04-29T20:24:10.601Z,2.60
2023-04-29T20:29:14.671Z,1.70
2023-04-29T20:34:16.453Z,2.27
2023-04-29T20:39:22.642Z,1.73
2023-04-29T20:44:27.383Z,1.90
2023-04-29T20:49:29.079Z,2.00
2023-04-29T20:54:30.754Z,2.53
2023-04-29T20:59:37.661Z,2.00
2023-04-29T21:04:39.600Z,2.50
2023-04-29T21:09:43.608Z,2.00
2023-04-29T21:14:47.806Z,2.90
2023-04-29T21:19:49.556Z,2.60
2023-04-29T21:24:51.255Z,3.10
2023-04-29T21:29:56.865Z,2.60
2023-04-29T21:35:00.836Z,2.80
2023-04-29T21:40:04.288Z,2.57
2023-04-29T21:45:09.409Z,2.70
2023-04-29T21:50:13.637Z,2.57
2023-04-29T21:55:15.492Z,2.80
2023-04-29T22:00:32.979Z,2.60
2023-04-29T22:05:38.205Z,2.90
2023-04-29T22:10:41.452Z,3.20
2023-04-29T22:15:45.570Z,3.10
2023-04-29T22:20:50.309Z,2.53
2023-04-29T22:25:54.223Z,3.17
2023-04-29T22:31:00.703Z,3.00
2023-04-29T22:36:05.318Z,3.83
2023-04-29T22:41:11.658Z,2.90
2023-04-29T22:46:15.890Z,3.10
2023-04-29T22:51:20.228Z,3.30
2023-04-29T22:56:24.672Z,3.80
2023-04-29T23:01:26.495Z,3.33
2023-04-29T23:06:28.333Z,3.90
2023-04-29T23:11:32.144Z,3.60
2023-04-29T23:16:36.140Z,3.87
2023-04-29T23:21:40.371Z,3.93
2023-04-29T23:26:46.914Z,3.70
2023-04-29T23:31:48.732Z,4.50
2023-04-29T23:36:50.678Z,4.30
2023-04-29T23:41:54.462Z,4.93
2023-04-29T23:46:56.143Z,4.77
2023-04-29T23:51:57.914Z,4.70
2023-04-29T23:57:02.717Z,4.37
